Terminal Aerodrome Forecast
Issued by NWS

Home | Current Version | Previous Version | Text Only | Print | Product List | Glossary On
Versions: 1 2 3 4 5 6 7 8 9 10 11 12 13 14 15 16 17 18 19 20 21 22 23 24 25 26 27 28 29
000
FTUS45 KABQ 262100 AAA
TAFSAF
TAF AMD
KSAF 262102Z 2621/2718 15015G25KT P6SM VCSH OVC020
     FM270300 15020G30KT P6SM VCSH BKN020
     FM270700 15014KT 2SM -SN OVC007
     FM271400 16010KT P6SM VCSH OVC025=

USA.gov is the U.S. government's official web portal to all federal, state and local government web resources and services.